Terminal Aerodrome Forecast
Issued by NWS

Home | Current Version | Previous Version | Text Only | Print | Product List | Glossary On
Versions: 1 2 3 4 5 6 7 8 9 10 11 12 13
957
FTUS43 KLSX 180521
TAFSUS
TAF
KSUS 180521Z 1806/1906 00000KT P6SM FEW250
     FM180900 00000KT 4SM BR SKC
     FM181300 VRB03KT P6SM SCT040
     FM190200 VRB03KT P6SM FEW250=

USA.gov is the U.S. government's official web portal to all federal, state and local government web resources and services.